createdAt,value
2017-04-21T00:00:04.003Z,-0.54
2017-04-21T00:00:08.197Z,-0.54
2017-04-21T00:00:12.501Z,-0.54
2017-04-21T00:00:16.810Z,-0.54
2017-04-21T00:00:21.244Z,-0.56
2017-04-21T00:00:25.683Z,-0.55
2017-04-21T00:00:30.172Z,-0.56
2017-04-21T00:00:34.631Z,-0.55
2017-04-21T00:00:39.064Z,-0.55
2017-04-21T00:00:43.380Z,-0.55
2017-04-21T00:00:47.679Z,-0.56
2017-04-21T00:00:51.988Z,-0.54
2017-04-21T00:00:56.418Z,-0.56
2017-04-21T00:01:00.845Z,-0.56
2017-04-21T00:01:05.149Z,-0.56
2017-04-21T00:01:09.451Z,-0.57
2017-04-21T00:01:13.891Z,-0.57
2017-04-21T00:01:18.317Z,-0.56
2017-04-21T00:01:22.619Z,-0.56
2017-04-21T00:01:27.042Z,-0.56
2017-04-21T00:01:31.354Z,-0.56
2017-04-21T00:01:35.777Z,-0.57
2017-04-21T00:01:40.203Z,-0.57
2017-04-21T00:01:44.631Z,-0.57
2017-04-21T00:01:48.949Z,-0.57
2017-04-21T00:01:53.373Z,-0.56
2017-04-21T00:01:57.792Z,-0.57
2017-04-21T00:02:02.427Z,-0.58
2017-04-21T00:02:06.612Z,-0.57
2017-04-21T00:02:10.796Z,-0.57
2017-04-21T00:02:15.107Z,-0.57
2017-04-21T00:02:19.415Z,-0.57
2017-04-21T00:02:23.725Z,-0.58
2017-04-21T00:02:28.034Z,-0.57
2017-04-21T00:02:32.353Z,-0.58
2017-04-21T00:02:36.798Z,-0.58
2017-04-21T00:02:41.109Z,-0.57
2017-04-21T00:02:45.716Z,-0.57
2017-04-21T00:02:50.355Z,-0.58
2017-04-21T00:02:54.793Z,-0.58
2017-04-21T00:02:59.209Z,-0.58
2017-04-21T00:03:03.630Z,-0.58
2017-04-21T00:03:08.062Z,-0.58
2017-04-21T00:03:12.508Z,-0.59
2017-04-21T00:03:16.832Z,-0.59
2017-04-21T00:03:21.264Z,-0.58
2017-04-21T00:03:25.726Z,-0.59
2017-04-21T00:03:30.151Z,-0.58
2017-04-21T00:03:34.584Z,-0.6
2017-04-21T00:03:38.899Z,-0.59
2017-04-21T00:03:43.336Z,-0.59
2017-04-21T00:03:47.774Z,-0.6
2017-04-21T00:03:52.366Z,-0.59
2017-04-21T00:03:56.803Z,-0.59
2017-04-21T00:04:01.232Z,-0.6
2017-04-21T00:04:05.540Z,-0.6
2017-04-21T00:04:09.854Z,-0.6
2017-04-21T00:04:14.308Z,-0.61
2017-04-21T00:04:18.734Z,-0.6
2017-04-21T00:04:23.171Z,-0.6
2017-04-21T00:04:27.609Z,-0.6
2017-04-21T00:04:32.036Z,-0.61
2017-04-21T00:04:36.458Z,-0.61
2017-04-21T00:04:40.890Z,-0.61
2017-04-21T00:04:45.315Z,-0.61
2017-04-21T00:04:49.618Z,-0.6
2017-04-21T00:04:53.812Z,-0.6
2017-04-21T00:04:58.239Z,-0.61
2017-04-21T00:05:02.740Z,-0.6
2017-04-21T00:05:06.927Z,-0.61
2017-04-21T00:05:11.343Z,-0.61
2017-04-21T00:05:15.651Z,-0.61
2017-04-21T00:05:20.099Z,-0.61
2017-04-21T00:05:24.516Z,-0.62
2017-04-21T00:05:28.939Z,-0.61
2017-04-21T00:05:33.363Z,-0.6
2017-04-21T00:05:37.788Z,-0.61
2017-04-21T00:05:42.205Z,-0.62
2017-04-21T00:05:46.286Z,-0.63
2017-04-21T00:05:50.726Z,-0.63
2017-04-21T00:05:55.147Z,-0.63
2017-04-21T00:05:59.450Z,-0.63
2017-04-21T00:06:04.070Z,-0.63
2017-04-21T00:06:08.679Z,-0.63
2017-04-21T00:06:13.095Z,-0.63
2017-04-21T00:06:17.520Z,-0.64
2017-04-21T00:06:21.948Z,-0.64
2017-04-21T00:06:26.378Z,-0.63
2017-04-21T00:06:30.803Z,-0.64
2017-04-21T00:06:35.109Z,-0.64
2017-04-21T00:06:39.537Z,-0.63
2017-04-21T00:06:43.729Z,-0.64
2017-04-21T00:06:48.152Z,-0.64
2017-04-21T00:06:52.579Z,-0.64
2017-04-21T00:06:56.905Z,-0.64
2017-04-21T00:07:01.332Z,-0.64
2017-04-21T00:07:05.797Z,-0.64
2017-04-21T00:07:10.112Z,-0.64
2017-04-21T00:07:14.540Z,-0.64
2017-04-21T00:07:19.162Z,-0.64
2017-04-21T00:07:23.582Z,-0.64
2017-04-21T00:07:28.028Z,-0.64
2017-04-21T00:07:32.455Z,-0.64
2017-04-21T00:07:36.648Z,-0.65
2017-04-21T00:07:41.079Z,-0.64
2017-04-21T00:07:45.538Z,-0.65
2017-04-21T00:07:49.972Z,-0.64
2017-04-21T00:07:54.399Z,-0.64
2017-04-21T00:07:58.841Z,-0.65
2017-04-21T00:08:03.321Z,-0.64
2017-04-21T00:08:07.629Z,-0.64
2017-04-21T00:08:11.825Z,-0.65
2017-04-21T00:08:16.026Z,-0.64
2017-04-21T00:08:20.453Z,-0.64
2017-04-21T00:08:25.123Z,-0.64
2017-04-21T00:08:29.634Z,-0.64
2017-04-21T00:08:33.974Z,-0.65
2017-04-21T00:08:38.279Z,-0.64
2017-04-21T00:08:42.707Z,-0.64
2017-04-21T00:08:46.914Z,-0.65
2017-04-21T00:08:51.344Z,-0.65
2017-04-21T00:08:55.762Z,-0.65
2017-04-21T00:09:00.185Z,-0.65
2017-04-21T00:09:04.651Z,-0.65
2017-04-21T00:09:08.976Z,-0.65
2017-04-21T00:09:13.406Z,-0.66
2017-04-21T00:09:17.845Z,-0.64
2017-04-21T00:09:22.281Z,-0.65
2017-04-21T00:09:26.477Z,-0.65
2017-04-21T00:09:30.946Z,-0.65
2017-04-21T00:09:35.379Z,-0.64
2017-04-21T00:09:39.806Z,-0.65
2017-04-21T00:09:44.230Z,-0.64
2017-04-21T00:09:48.427Z,-0.64
2017-04-21T00:09:52.862Z,-0.65
2017-04-21T00:09:57.289Z,-0.65
2017-04-21T00:10:01.723Z,-0.65
2017-04-21T00:10:20.961Z,-0.64
2017-04-21T00:10:25.148Z,-0.64
2017-04-21T00:10:29.452Z,-0.65
2017-04-21T00:10:33.880Z,-0.65
2017-04-21T00:10:38.311Z,-0.65
2017-04-21T00:10:42.726Z,-0.66
2017-04-21T00:10:47.027Z,-0.65
2017-04-21T00:10:51.447Z,-0.64
2017-04-21T00:10:55.765Z,-0.65
2017-04-21T00:11:00.192Z,-0.65
2017-04-21T00:11:04.821Z,-0.64
2017-04-21T00:11:09.127Z,-0.65
2017-04-21T00:11:13.565Z,-0.64
2017-04-21T00:11:17.984Z,-0.64
2017-04-21T00:11:22.410Z,-0.65
2017-04-21T00:11:26.728Z,-0.65
2017-04-21T00:11:31.153Z,-0.65
2017-04-21T00:11:35.456Z,-0.66
2017-04-21T00:11:39.767Z,-0.64
2017-04-21T00:11:44.211Z,-0.65
2017-04-21T00:11:48.634Z,-0.65
2017-04-21T00:11:53.061Z,-0.65
2017-04-21T00:11:57.483Z,-0.65
2017-04-21T00:12:02.118Z,-0.66
2017-04-21T00:12:06.420Z,-0.65
2017-04-21T00:12:10.611Z,-0.66
2017-04-21T00:12:15.033Z,-0.65
2017-04-21T00:12:19.458Z,-0.65
2017-04-21T00:12:23.879Z,-0.66
2017-04-21T00:12:28.303Z,-0.65
2017-04-21T00:12:32.741Z,-0.64
2017-04-21T00:12:37.167Z,-0.65
2017-04-21T00:12:41.596Z,-0.65
2017-04-21T00:12:46.034Z,-0.64
2017-04-21T00:12:50.500Z,-0.64
2017-04-21T00:12:55.061Z,-0.65
2017-04-21T00:12:59.535Z,-0.64
2017-04-21T00:13:03.963Z,-0.65
2017-04-21T00:13:08.389Z,-0.65
2017-04-21T00:13:12.815Z,-0.64
2017-04-21T00:13:17.128Z,-0.65
2017-04-21T00:13:21.568Z,-0.65
2017-04-21T00:13:25.892Z,-0.65
2017-04-21T00:13:30.192Z,-0.65
2017-04-21T00:13:34.631Z,-0.64
2017-04-21T00:13:38.936Z,-0.65
2017-04-21T00:13:43.243Z,-0.65
2017-04-21T00:13:47.677Z,-0.65
2017-04-21T00:13:52.112Z,-0.66
2017-04-21T00:13:56.545Z,-0.66
2017-04-21T00:14:00.973Z,-0.65
2017-04-21T00:14:05.595Z,-0.65
2017-04-21T00:14:09.985Z,-0.66
2017-04-21T00:14:14.301Z,-0.66
2017-04-21T00:14:18.725Z,-0.66
2017-04-21T00:14:23.152Z,-0.66
2017-04-21T00:14:27.584Z,-0.66
2017-04-21T00:14:32.019Z,-0.66
2017-04-21T00:14:36.444Z,-0.67
2017-04-21T00:14:40.871Z,-0.66
2017-04-21T00:14:45.299Z,-0.67
2017-04-21T00:14:49.725Z,-0.66
2017-04-21T00:14:54.158Z,-0.66
2017-04-21T00:14:58.468Z,-0.66
2017-04-21T00:15:03.011Z,-0.67
2017-04-21T00:15:07.314Z,-0.67
2017-04-21T00:15:11.518Z,-0.67
2017-04-21T00:15:15.877Z,-0.67
2017-04-21T00:15:20.187Z,-0.67
2017-04-21T00:15:24.491Z,-0.67
2017-04-21T00:15:28.681Z,-0.66
2017-04-21T00:15:33.111Z,-0.68
2017-04-21T00:15:37.528Z,-0.67
2017-04-21T00:15:41.835Z,-0.67
2017-04-21T00:15:46.263Z,-0.68
2017-04-21T00:15:50.692Z,-0.68
2017-04-21T00:15:55.112Z,-0.68
2017-04-21T00:15:59.541Z,-0.68
2017-04-21T00:16:04.119Z,-0.68
2017-04-21T00:16:08.542Z,-0.67
2017-04-21T00:16:12.971Z,-0.68
2017-04-21T00:16:17.402Z,-0.68
2017-04-21T00:16:21.850Z,-0.68
2017-04-21T00:16:26.163Z,-0.68
2017-04-21T00:16:30.590Z,-0.69
2017-04-21T00:16:34.908Z,-0.69
2017-04-21T00:16:39.340Z,-0.69
2017-04-21T00:16:43.646Z,-0.68
2017-04-21T00:16:48.069Z,-0.69
2017-04-21T00:16:52.519Z,-0.68
2017-04-21T00:16:56.940Z,-0.69
2017-04-21T00:17:01.362Z,-0.69
2017-04-21T00:17:05.551Z,-0.7
2017-04-21T00:17:09.981Z,-0.69
2017-04-21T00:17:14.411Z,-0.69
2017-04-21T00:17:18.837Z,-0.69
2017-04-21T00:17:23.271Z,-0.7
2017-04-21T00:17:27.693Z,-0.71
2017-04-21T00:17:31.883Z,-0.7
2017-04-21T00:17:36.309Z,-0.7
2017-04-21T00:17:40.777Z,-0.7
2017-04-21T00:17:45.205Z,-0.7
2017-04-21T00:17:49.632Z,-0.71
2017-04-21T00:17:54.061Z,-0.7
2017-04-21T00:17:58.373Z,-0.7
2017-04-21T00:18:02.784Z,-0.7
2017-04-21T00:18:07.209Z,-0.71
2017-04-21T00:18:11.642Z,-0.71
2017-04-21T00:18:16.102Z,-0.71
2017-04-21T00:18:20.534Z,-0.71
2017-04-21T00:18:24.965Z,-0.7
2017-04-21T00:18:29.292Z,-0.71
2017-04-21T00:18:33.726Z,-0.72
2017-04-21T00:18:38.297Z,-0.72
2017-04-21T00:18:42.830Z,-0.72
2017-04-21T00:18:47.140Z,-0.72
2017-04-21T00:18:51.449Z,-0.72
2017-04-21T00:18:55.879Z,-0.73
2017-04-21T00:19:00.210Z,-0.73
2017-04-21T00:19:04.883Z,-0.73
2017-04-21T00:19:09.316Z,-0.73
2017-04-21T00:19:13.631Z,-0.73
2017-04-21T00:19:17.953Z,-0.73
2017-04-21T00:19:22.389Z,-0.73
2017-04-21T00:19:26.819Z,-0.74
2017-04-21T00:19:31.253Z,-0.72
2017-04-21T00:19:35.677Z,-0.74
2017-04-21T00:19:39.985Z,-0.74
2017-04-21T00:19:44.290Z,-0.73
2017-04-21T00:19:48.762Z,-0.73
2017-04-21T00:19:53.083Z,-0.74
2017-04-21T00:19:57.507Z,-0.74
2017-04-21T00:20:01.931Z,-0.75
2017-04-21T00:20:06.358Z,-0.74
2017-04-21T00:20:10.787Z,-0.75
2017-04-21T00:20:15.214Z,-0.76
2017-04-21T00:20:19.640Z,-0.75
2017-04-21T00:20:24.091Z,-0.76
2017-04-21T00:20:28.517Z,-0.77
2017-04-21T00:20:32.937Z,-0.75
2017-04-21T00:20:37.240Z,-0.75
2017-04-21T00:20:41.691Z,-0.76
2017-04-21T00:20:45.881Z,-0.76
2017-04-21T00:20:50.189Z,-0.76
2017-04-21T00:20:54.770Z,-0.75
2017-04-21T00:20:59.211Z,-0.75
2017-04-21T00:21:03.517Z,-0.76
2017-04-21T00:21:07.822Z,-0.76
2017-04-21T00:21:12.136Z,-0.76
2017-04-21T00:21:16.562Z,-0.77
2017-04-21T00:21:20.989Z,-0.77
2017-04-21T00:21:25.184Z,-0.76
2017-04-21T00:21:29.617Z,-0.77
2017-04-21T00:21:33.919Z,-0.77
2017-04-21T00:21:38.344Z,-0.77
2017-04-21T00:21:42.776Z,-0.77
2017-04-21T00:21:47.202Z,-0.77
2017-04-21T00:21:51.504Z,-0.77
2017-04-21T00:21:55.922Z,-0.78
2017-04-21T00:22:00.350Z,-0.77
2017-04-21T00:22:05.054Z,-0.78
2017-04-21T00:22:09.482Z,-0.78
2017-04-21T00:22:13.910Z,-0.77
2017-04-21T00:22:18.346Z,-0.78
2017-04-21T00:22:22.650Z,-0.78
2017-04-21T00:22:27.076Z,-0.78
2017-04-21T00:22:31.518Z,-0.78
2017-04-21T00:22:35.961Z,-0.77
2017-04-21T00:22:40.374Z,-0.78
2017-04-21T00:22:44.685Z,-0.78
2017-04-21T00:22:49.113Z,-0.79
2017-04-21T00:22:53.532Z,-0.78
2017-04-21T00:22:57.957Z,-0.79
2017-04-21T00:23:02.418Z,-0.79
2017-04-21T00:23:06.623Z,-0.78
2017-04-21T00:23:11.046Z,-0.78
2017-04-21T00:23:15.544Z,-0.78
2017-04-21T00:23:19.976Z,-0.78
2017-04-21T00:23:24.293Z,-0.78
2017-04-21T00:23:28.719Z,-0.78
2017-04-21T00:23:33.138Z,-0.78
2017-04-21T00:23:37.572Z,-0.78
2017-04-21T00:23:41.998Z,-0.78
2017-04-21T00:23:46.423Z,-0.79
2017-04-21T00:23:50.856Z,-0.79
2017-04-21T00:23:55.173Z,-0.79
2017-04-21T00:23:59.595Z,-0.79
2017-04-21T00:24:04.315Z,-0.79
2017-04-21T00:24:08.744Z,-0.8
2017-04-21T00:24:13.171Z,-0.79
2017-04-21T00:24:17.479Z,-0.79
2017-04-21T00:24:22.003Z,-0.79
2017-04-21T00:24:26.436Z,-0.79
2017-04-21T00:24:30.748Z,-0.79
2017-04-21T00:24:35.173Z,-0.79
2017-04-21T00:24:39.479Z,-0.79
2017-04-21T00:24:43.911Z,-0.79
2017-04-21T00:24:48.336Z,-0.79
2017-04-21T00:24:52.761Z,-0.79
2017-04-21T00:24:57.185Z,-0.8
2017-04-21T00:25:01.617Z,-0.78
2017-04-21T00:25:06.024Z,-0.78
2017-04-21T00:25:10.331Z,-0.79
2017-04-21T00:25:14.760Z,-0.8
2017-04-21T00:25:19.187Z,-0.79
2017-04-21T00:25:23.618Z,-0.8
2017-04-21T00:25:28.048Z,-0.79
2017-04-21T00:25:32.359Z,-0.79
2017-04-21T00:25:36.785Z,-0.78
2017-04-21T00:25:41.204Z,-0.79
2017-04-21T00:25:45.634Z,-0.79
2017-04-21T00:25:50.084Z,-0.79
2017-04-21T00:25:54.503Z,-0.79
2017-04-21T00:25:58.934Z,-0.79
2017-04-21T00:26:03.612Z,-0.79
2017-04-21T00:26:08.036Z,-0.78
2017-04-21T00:26:12.345Z,-0.79
2017-04-21T00:26:16.648Z,-0.78
2017-04-21T00:26:20.842Z,-0.78
2017-04-21T00:26:25.155Z,-0.78
2017-04-21T00:26:29.462Z,-0.79
2017-04-21T00:26:33.650Z,-0.78
2017-04-21T00:26:38.086Z,-0.78
2017-04-21T00:26:42.503Z,-0.78
2017-04-21T00:26:46.928Z,-0.79
2017-04-21T00:26:51.239Z,-0.79
2017-04-21T00:26:55.698Z,-0.79
2017-04-21T00:27:00.119Z,-0.79
2017-04-21T00:27:04.423Z,-0.79
2017-04-21T00:27:08.727Z,-0.78
2017-04-21T00:27:13.180Z,-0.79
2017-04-21T00:27:17.601Z,-0.78
2017-04-21T00:27:22.031Z,-0.79
2017-04-21T00:27:26.463Z,-0.78
2017-04-21T00:27:30.885Z,-0.79
2017-04-21T00:27:35.186Z,-0.79
2017-04-21T00:27:39.619Z,-0.79
2017-04-21T00:27:44.136Z,-0.79
2017-04-21T00:27:48.656Z,-0.79
2017-04-21T00:27:53.091Z,-0.78
2017-04-21T00:27:57.523Z,-0.79
2017-04-21T00:28:01.833Z,-0.79
2017-04-21T00:28:06.236Z,-0.79
2017-04-21T00:28:10.548Z,-0.78
2017-04-21T00:28:14.991Z,-0.79
2017-04-21T00:28:19.412Z,-0.79
2017-04-21T00:28:23.841Z,-0.79
2017-04-21T00:28:28.272Z,-0.8
2017-04-21T00:28:32.707Z,-0.8
2017-04-21T00:28:37.131Z,-0.79
2017-04-21T00:28:41.566Z,-0.78
2017-04-21T00:28:46.001Z,-0.79
2017-04-21T00:28:50.534Z,-0.79
2017-04-21T00:28:55.035Z,-0.79
2017-04-21T00:28:59.457Z,-0.79
2017-04-21T00:29:03.931Z,-0.79
2017-04-21T00:29:08.249Z,-0.79
2017-04-21T00:29:12.670Z,-0.8
2017-04-21T00:29:17.111Z,-0.79
2017-04-21T00:29:21.556Z,-0.79
2017-04-21T00:29:25.873Z,-0.79
2017-04-21T00:29:29.948Z,-0.79
2017-04-21T00:29:34.254Z,-0.8
2017-04-21T00:29:38.687Z,-0.8
2017-04-21T00:29:42.885Z,-0.79
2017-04-21T00:29:47.313Z,-0.8
2017-04-21T00:29:51.739Z,-0.8
2017-04-21T00:29:56.169Z,-0.8
2017-04-21T00:30:00.594Z,-0.8
2017-04-21T00:30:05.019Z,-0.8
2017-04-21T00:30:09.332Z,-0.8
2017-04-21T00:30:13.759Z,-0.8
2017-04-21T00:30:18.187Z,-0.8
2017-04-21T00:30:22.624Z,-0.81
2017-04-21T00:30:26.943Z,-0.8
2017-04-21T00:30:31.366Z,-0.81
2017-04-21T00:30:35.669Z,-0.81
2017-04-21T00:30:40.095Z,-0.81
2017-04-21T00:30:44.516Z,-0.8
2017-04-21T00:30:48.934Z,-0.8
2017-04-21T00:30:53.408Z,-0.81
2017-04-21T00:30:57.850Z,-0.81
2017-04-21T00:31:02.477Z,-0.81
2017-04-21T00:31:06.776Z,-0.81
2017-04-21T00:31:11.203Z,-0.8
2017-04-21T00:31:15.646Z,-0.81
2017-04-21T00:31:20.069Z,-0.8
2017-04-21T00:31:24.257Z,-0.81
2017-04-21T00:31:28.681Z,-0.81
2017-04-21T00:31:33.100Z,-0.81
2017-04-21T00:31:37.400Z,-0.81
2017-04-21T00:31:41.825Z,-0.81
2017-04-21T00:31:46.249Z,-0.81
2017-04-21T00:31:50.552Z,-0.8
2017-04-21T00:31:54.978Z,-0.81
2017-04-21T00:31:59.410Z,-0.81
2017-04-21T00:32:03.913Z,-0.81
2017-04-21T00:32:08.338Z,-0.81
2017-04-21T00:32:12.767Z,-0.81
2017-04-21T00:32:17.269Z,-0.81
2017-04-21T00:32:21.767Z,-0.81
2017-04-21T00:32:26.067Z,-0.8
2017-04-21T00:32:30.379Z,-0.81
2017-04-21T00:32:34.807Z,-0.8
2017-04-21T00:32:39.234Z,-0.8
2017-04-21T00:32:43.672Z,-0.81
2017-04-21T00:32:48.112Z,-0.81
2017-04-21T00:32:52.543Z,-0.81
2017-04-21T00:32:56.973Z,-0.81
2017-04-21T00:33:01.403Z,-0.83
2017-04-21T00:33:05.871Z,-0.81
2017-04-21T00:33:10.298Z,-0.81
2017-04-21T00:33:14.731Z,-0.81
2017-04-21T00:33:19.156Z,-0.81
2017-04-21T00:33:23.497Z,-0.81
2017-04-21T00:33:27.888Z,-0.81
2017-04-21T00:33:32.320Z,-0.81
2017-04-21T00:33:36.770Z,-0.81
2017-04-21T00:33:41.206Z,-0.8
2017-04-21T00:33:45.520Z,-0.81
2017-04-21T00:33:49.945Z,-0.81
2017-04-21T00:33:54.379Z,-0.81
2017-04-21T00:33:58.810Z,-0.81
2017-04-21T00:34:03.380Z,-0.81
2017-04-21T00:34:07.569Z,-0.81
2017-04-21T00:34:12.005Z,-0.8
2017-04-21T00:34:16.433Z,-0.81
2017-04-21T00:34:20.871Z,-0.8
2017-04-21T00:34:25.308Z,-0.81
2017-04-21T00:34:29.969Z,-0.8
2017-04-21T00:34:34.409Z,-0.81
2017-04-21T00:34:38.831Z,-0.8
2017-04-21T00:34:43.147Z,-0.81
2017-04-21T00:34:47.565Z,-0.8
2017-04-21T00:34:52.000Z,-0.8
2017-04-21T00:34:56.310Z,-0.81
2017-04-21T00:35:00.753Z,-0.8
2017-04-21T00:35:05.069Z,-0.81
2017-04-21T00:35:09.372Z,-0.81
2017-04-21T00:35:13.687Z,-0.81
2017-04-21T00:35:17.996Z,-0.8
2017-04-21T00:35:22.419Z,-0.81
2017-04-21T00:35:26.728Z,-0.81
2017-04-21T00:35:31.154Z,-0.81
2017-04-21T00:35:35.573Z,-0.8
2017-04-21T00:35:40.331Z,-0.81
2017-04-21T00:35:44.699Z,-0.8
2017-04-21T00:35:49.148Z,-0.8
2017-04-21T00:35:53.866Z,-0.81
2017-04-21T00:35:58.290Z,-0.8
2017-04-21T00:36:02.728Z,-0.8
2017-04-21T00:36:06.912Z,-0.81
2017-04-21T00:36:11.215Z,-0.8
2017-04-21T00:36:15.645Z,-0.8
2017-04-21T00:36:19.857Z,-0.8
2017-04-21T00:36:24.286Z,-0.8
2017-04-21T00:36:28.593Z,-0.8
2017-04-21T00:36:33.024Z,-0.81
2017-04-21T00:36:37.443Z,-0.8
2017-04-21T00:36:41.865Z,-0.8
2017-04-21T00:36:46.290Z,-0.79
2017-04-21T00:36:50.948Z,-0.81
2017-04-21T00:36:55.376Z,-0.8
2017-04-21T00:36:59.695Z,-0.8
2017-04-21T00:37:04.132Z,-0.8
2017-04-21T00:37:08.447Z,-0.8
2017-04-21T00:37:12.749Z,-0.8
2017-04-21T00:37:17.177Z,-0.8
2017-04-21T00:37:21.610Z,-0.8
2017-04-21T00:37:25.915Z,-0.8
2017-04-21T00:37:30.221Z,-0.81
2017-04-21T00:37:34.647Z,-0.8
2017-04-21T00:37:39.103Z,-0.8
2017-04-21T00:37:43.531Z,-0.8
2017-04-21T00:37:47.843Z,-0.8
2017-04-21T00:37:52.268Z,-0.8
2017-04-21T00:37:56.729Z,-0.8
2017-04-21T00:38:01.154Z,-0.8
2017-04-21T00:38:05.686Z,-0.8
2017-04-21T00:38:10.112Z,-0.79
2017-04-21T00:38:14.540Z,-0.79
2017-04-21T00:38:18.968Z,-0.8
2017-04-21T00:38:23.393Z,-0.79
2017-04-21T00:38:27.595Z,-0.8
2017-04-21T00:38:31.903Z,-0.79
2017-04-21T00:38:36.208Z,-0.79
2017-04-21T00:38:40.645Z,-0.79
2017-04-21T00:38:45.107Z,-0.78
2017-04-21T00:38:49.411Z,-0.79
2017-04-21T00:38:53.840Z,-0.79
2017-04-21T00:38:58.268Z,-0.79
2017-04-21T00:39:03.043Z,-0.79
2017-04-21T00:39:07.468Z,-0.8
2017-04-21T00:39:11.957Z,-0.8
2017-04-21T00:39:16.395Z,-0.79
2017-04-21T00:39:20.729Z,-0.79
2017-04-21T00:39:24.919Z,-0.79
2017-04-21T00:39:29.241Z,-0.79
2017-04-21T00:39:33.578Z,-0.79
2017-04-21T00:39:38.006Z,-0.79
2017-04-21T00:39:42.435Z,-0.8
2017-04-21T00:39:46.774Z,-0.8
2017-04-21T00:39:51.208Z,-0.79
2017-04-21T00:39:55.636Z,-0.79
2017-04-21T00:40:00.071Z,-0.79
2017-04-21T00:40:04.506Z,-0.79
2017-04-21T00:40:08.814Z,-0.8
2017-04-21T00:40:13.200Z,-0.8
2017-04-21T00:40:17.801Z,-0.8
2017-04-21T00:40:22.226Z,-0.79
2017-04-21T00:40:26.529Z,-0.8
2017-04-21T00:40:30.960Z,-0.8
2017-04-21T00:40:35.395Z,-0.79
2017-04-21T00:40:39.826Z,-0.8
2017-04-21T00:40:44.248Z,-0.79
2017-04-21T00:40:48.445Z,-0.79
2017-04-21T00:40:52.877Z,-0.79
2017-04-21T00:40:57.298Z,-0.79
2017-04-21T00:41:01.879Z,-0.79
2017-04-21T00:41:06.310Z,-0.8
2017-04-21T00:41:10.735Z,-0.8
2017-04-21T00:41:15.165Z,-0.8
2017-04-21T00:41:19.364Z,-0.79
2017-04-21T00:41:23.673Z,-0.8
2017-04-21T00:41:28.061Z,-0.79
2017-04-21T00:41:32.483Z,-0.79
2017-04-21T00:41:36.903Z,-0.79
2017-04-21T00:41:41.329Z,-0.79
2017-04-21T00:41:45.755Z,-0.8
2017-04-21T00:41:50.176Z,-0.8
2017-04-21T00:41:54.482Z,-0.8
2017-04-21T00:41:58.907Z,-0.79
2017-04-21T00:42:03.336Z,-0.8
2017-04-21T00:42:07.641Z,-0.8
2017-04-21T00:42:12.069Z,-0.8
2017-04-21T00:42:16.494Z,-0.8
2017-04-21T00:42:20.918Z,-0.79
2017-04-21T00:42:25.109Z,-0.8
2017-04-21T00:42:29.541Z,-0.79
2017-04-21T00:42:33.969Z,-0.8
2017-04-21T00:42:38.398Z,-0.8
2017-04-21T00:42:42.834Z,-0.8
2017-04-21T00:42:47.263Z,-0.79
2017-04-21T00:42:51.578Z,-0.8
2017-04-21T00:42:55.884Z,-0.8
2017-04-21T00:43:00.191Z,-0.8
2017-04-21T00:43:04.685Z,-0.81
2017-04-21T00:43:08.875Z,-0.81
2017-04-21T00:43:13.300Z,-0.8
2017-04-21T00:43:17.739Z,-0.81
2017-04-21T00:43:22.061Z,-0.8
2017-04-21T00:43:26.365Z,-0.81
2017-04-21T00:43:30.556Z,-0.81
2017-04-21T00:43:34.985Z,-0.8
2017-04-21T00:43:39.676Z,-0.8
2017-04-21T00:43:44.109Z,-0.81
2017-04-21T00:43:48.549Z,-0.81
2017-04-21T00:43:52.986Z,-0.81
2017-04-21T00:43:57.414Z,-0.8
2017-04-21T00:44:01.723Z,-0.81
2017-04-21T00:44:06.153Z,-0.81
2017-04-21T00:44:10.618Z,-0.8
2017-04-21T00:44:15.048Z,-0.81
2017-04-21T00:44:19.472Z,-0.81
2017-04-21T00:44:23.926Z,-0.81
2017-04-21T00:44:28.354Z,-0.81
2017-04-21T00:44:32.660Z,-0.82
2017-04-21T00:44:37.087Z,-0.82
2017-04-21T00:44:41.427Z,-0.82
2017-04-21T00:44:45.847Z,-0.81
2017-04-21T00:44:50.390Z,-0.8
2017-04-21T00:44:54.577Z,-0.81
2017-04-21T00:44:59.015Z,-0.81
2017-04-21T00:45:03.551Z,-0.81
2017-04-21T00:45:07.737Z,-0.81
2017-04-21T00:45:12.165Z,-0.81
2017-04-21T00:45:16.593Z,-0.82
2017-04-21T00:45:21.017Z,-0.81
2017-04-21T00:45:25.325Z,-0.81
2017-04-21T00:45:29.645Z,-0.81
2017-04-21T00:45:34.077Z,-0.82
2017-04-21T00:45:38.498Z,-0.81
2017-04-21T00:45:42.928Z,-0.81
2017-04-21T00:45:47.353Z,-0.81
2017-04-21T00:45:51.535Z,-0.82
2017-04-21T00:45:55.957Z,-0.82
2017-04-21T00:46:00.461Z,-0.81
2017-04-21T00:46:04.934Z,-0.81
2017-04-21T00:46:09.237Z,-0.81
2017-04-21T00:46:13.542Z,-0.81
2017-04-21T00:46:17.971Z,-0.81
2017-04-21T00:46:22.417Z,-0.82
2017-04-21T00:46:26.840Z,-0.82
2017-04-21T00:46:31.145Z,-0.82
2017-04-21T00:46:35.578Z,-0.82
2017-04-21T00:46:39.769Z,-0.83
2017-04-21T00:46:44.195Z,-0.82
2017-04-21T00:46:48.620Z,-0.82
2017-04-21T00:46:53.045Z,-0.82
2017-04-21T00:46:57.469Z,-0.82
2017-04-21T00:47:02.107Z,-0.83
2017-04-21T00:47:06.598Z,-0.82
2017-04-21T00:47:11.028Z,-0.82
2017-04-21T00:47:15.452Z,-0.81
2017-04-21T00:47:19.771Z,-0.82
2017-04-21T00:47:24.202Z,-0.83
2017-04-21T00:47:28.623Z,-0.82
2017-04-21T00:47:32.821Z,-0.82
2017-04-21T00:47:37.251Z,-0.82
2017-04-21T00:47:41.677Z,-0.81
2017-04-21T00:47:46.108Z,-0.81
2017-04-21T00:47:50.545Z,-0.82
2017-04-21T00:47:54.864Z,-0.81
2017-04-21T00:47:59.283Z,-0.82
2017-04-21T00:48:03.704Z,-0.81
2017-04-21T00:48:08.125Z,-0.81
2017-04-21T00:48:12.594Z,-0.81
2017-04-21T00:48:17.214Z,-0.81
2017-04-21T00:48:21.652Z,-0.81
2017-04-21T00:48:25.853Z,-0.81
2017-04-21T00:48:30.275Z,-0.81
2017-04-21T00:48:34.700Z,-0.81
2017-04-21T00:48:39.009Z,-0.82
2017-04-21T00:48:43.325Z,-0.81
2017-04-21T00:48:47.756Z,-0.82
2017-04-21T00:48:52.181Z,-0.81
2017-04-21T00:48:56.602Z,-0.82
2017-04-21T00:49:01.049Z,-0.82
2017-04-21T00:49:05.622Z,-0.82
2017-04-21T00:49:09.929Z,-0.82
2017-04-21T00:49:14.356Z,-0.81
2017-04-21T00:49:18.800Z,-0.82
2017-04-21T00:49:23.282Z,-0.81
2017-04-21T00:49:27.589Z,-0.81
2017-04-21T00:49:32.023Z,-0.82
2017-04-21T00:49:36.331Z,-0.83
2017-04-21T00:49:40.763Z,-0.82
2017-04-21T00:49:45.190Z,-0.82
2017-04-21T00:49:49.623Z,-0.82
2017-04-21T00:49:53.942Z,-0.83
2017-04-21T00:49:58.368Z,-0.82
2017-04-21T00:50:02.790Z,-0.82
2017-04-21T00:50:06.990Z,-0.83
2017-04-21T00:50:11.293Z,-0.82
2017-04-21T00:50:15.712Z,-0.82
2017-04-21T00:50:20.133Z,-0.83
2017-04-21T00:50:24.592Z,-0.82
2017-04-21T00:50:29.256Z,-0.83
2017-04-21T00:50:33.674Z,-0.83
2017-04-21T00:50:37.981Z,-0.82
2017-04-21T00:50:42.405Z,-0.83
2017-04-21T00:50:46.704Z,-0.83
2017-04-21T00:50:51.128Z,-0.82
2017-04-21T00:50:55.581Z,-0.82
2017-04-21T00:51:00.013Z,-0.82
2017-04-21T00:51:04.318Z,-0.82
2017-04-21T00:51:08.618Z,-0.81
2017-04-21T00:51:13.053Z,-0.82
2017-04-21T00:51:17.476Z,-0.83
2017-04-21T00:51:21.665Z,-0.82
2017-04-21T00:51:26.094Z,-0.84
2017-04-21T00:51:30.401Z,-0.83
2017-04-21T00:51:34.831Z,-0.83
2017-04-21T00:51:39.287Z,-0.83
2017-04-21T00:51:43.713Z,-0.83
2017-04-21T00:51:48.140Z,-0.83
2017-04-21T00:51:52.557Z,-0.83
2017-04-21T00:51:56.989Z,-0.83
2017-04-21T00:52:01.422Z,-0.83
2017-04-21T00:52:05.727Z,-0.82
2017-04-21T00:52:10.146Z,-0.83
2017-04-21T00:52:14.461Z,-0.83
2017-04-21T00:52:18.898Z,-0.82
2017-04-21T00:52:23.318Z,-0.83
2017-04-21T00:52:27.748Z,-0.83
2017-04-21T00:52:32.078Z,-0.83
2017-04-21T00:52:36.386Z,-0.84
2017-04-21T00:52:40.822Z,-0.83
2017-04-21T00:52:45.407Z,-0.83
2017-04-21T00:52:49.848Z,-0.83
2017-04-21T00:52:54.271Z,-0.82
2017-04-21T00:52:58.692Z,-0.83
2017-04-21T00:53:03.120Z,-0.84
2017-04-21T00:53:07.548Z,-0.84
2017-04-21T00:53:11.862Z,-0.83
2017-04-21T00:53:16.291Z,-0.83
2017-04-21T00:53:20.732Z,-0.83
2017-04-21T00:53:25.182Z,-0.83
2017-04-21T00:53:29.603Z,-0.83
2017-04-21T00:53:34.032Z,-0.83
2017-04-21T00:53:38.362Z,-0.83
2017-04-21T00:53:42.559Z,-0.84
2017-04-21T00:53:46.988Z,-0.84
2017-04-21T00:53:51.414Z,-0.83
2017-04-21T00:53:55.847Z,-0.84
2017-04-21T00:54:00.287Z,-0.83
2017-04-21T00:54:04.843Z,-0.83
2017-04-21T00:54:09.157Z,-0.82
2017-04-21T00:54:13.611Z,-0.83
2017-04-21T00:54:17.919Z,-0.83
2017-04-21T00:54:22.354Z,-0.83
2017-04-21T00:54:26.689Z,-0.83
2017-04-21T00:54:31.107Z,-0.84
2017-04-21T00:54:35.539Z,-0.83
2017-04-21T00:54:39.855Z,-0.83
2017-04-21T00:54:44.302Z,-0.83
2017-04-21T00:54:48.607Z,-0.84
2017-04-21T00:54:52.912Z,-0.84
2017-04-21T00:54:57.531Z,-0.84
2017-04-21T00:55:02.074Z,-0.83
2017-04-21T00:55:06.377Z,-0.84
2017-04-21T00:55:10.799Z,-0.84
2017-04-21T00:55:15.228Z,-0.84
2017-04-21T00:55:19.682Z,-0.83
2017-04-21T00:55:23.994Z,-0.83
2017-04-21T00:55:28.413Z,-0.84
2017-04-21T00:55:32.727Z,-0.84
2017-04-21T00:55:37.158Z,-0.84
2017-04-21T00:55:41.580Z,-0.84
2017-04-21T00:55:45.888Z,-0.84
2017-04-21T00:55:50.317Z,-0.84
2017-04-21T00:55:54.743Z,-0.83
2017-04-21T00:55:59.053Z,-0.84
2017-04-21T00:56:03.581Z,-0.83
2017-04-21T00:56:07.887Z,-0.84
2017-04-21T00:56:12.369Z,-0.84
2017-04-21T00:56:16.797Z,-0.84
2017-04-21T00:56:21.222Z,-0.84
2017-04-21T00:56:25.642Z,-0.84
2017-04-21T00:56:30.063Z,-0.85
2017-04-21T00:56:34.490Z,-0.84
2017-04-21T00:56:38.914Z,-0.85
2017-04-21T00:56:43.333Z,-0.85
2017-04-21T00:56:47.771Z,-0.85
2017-04-21T00:56:52.078Z,-0.85
2017-04-21T00:56:56.506Z,-0.85
2017-04-21T00:57:00.936Z,-0.85
2017-04-21T00:57:05.237Z,-0.85
2017-04-21T00:57:09.546Z,-0.85
2017-04-21T00:57:14.035Z,-0.85